Time;durP1;ratioP1;P1;durP2;ratioP2;P2;SDS_P1;SDS_P2;PMS_P1;PMS_P2;Temp;Humidity;BMP_temperature;BMP_pressure;BME280_temperature;BME280_humidity;BME280_pressure;Samples;Min_cycle;Max_cycle;Signal;HPM_P1;HPM_P2
2023/01/09 00:00:31;;;;;;;4.22;1.15;;;18.90;1.00;;;;;;5071436;28;20041;-35
2023/01/09 00:02:58;;;;;;;3.83;0.77;;;18.90;1.00;;;;;;5071077;28;20044;-36
2023/01/09 00:05:24;;;;;;;5.82;1.20;;;18.90;1.00;;;;;;5073313;28;20449;-34
2023/01/09 00:07:51;;;;;;;3.85;1.20;;;18.80;1.00;;;;;;5075070;28;20090;-36
2023/01/09 00:10:18;;;;;;;6.60;1.25;;;18.80;1.00;;;;;;5074965;28;20120;-37
2023/01/09 00:12:45;;;;;;;2.30;0.70;;;18.80;1.00;;;;;;5074732;28;20049;-34
2023/01/09 00:15:11;;;;;;;4.60;0.68;;;18.70;1.00;;;;;;5075015;28;20055;-36
2023/01/09 00:17:38;;;;;;;5.25;0.70;;;18.80;1.00;;;;;;5074800;28;20119;-33
2023/01/09 00:20:08;;;;;;;4.25;0.80;;;18.70;1.00;;;;;;5066371;28;20033;-37
2023/01/09 00:22:36;;;;;;;5.82;0.70;;;18.70;1.00;;;;;;5054687;28;20033;-36
2023/01/09 00:25:04;;;;;;;6.28;0.65;;;18.70;1.00;;;;;;5054713;28;20041;-33
2023/01/09 00:27:34;;;;;;;2.92;0.73;;;18.60;1.00;;;;;;5054557;28;20041;-34
2023/01/09 00:30:02;;;;;;;4.05;0.68;;;18.60;1.00;;;;;;5054813;28;20083;-35
2023/01/09 00:32:39;;;;;;;3.03;0.70;;;18.50;1.00;;;;;;5055041;28;20071;-39
2023/01/09 00:35:10;;;;;;;4.85;1.05;;;18.50;1.00;;;;;;5050650;28;20059;-36
2023/01/09 00:37:37;;;;;;;2.28;0.68;;;18.50;1.00;;;;;;5053617;28;20128;-36
2023/01/09 00:40:04;;;;;;;6.03;0.90;;;18.50;1.00;;;;;;5054399;28;20532;-37
2023/01/09 00:42:34;;;;;;;3.05;1.00;;;18.50;1.00;;;;;;5053954;28;20043;-37
2023/01/09 00:45:04;;;;;;;5.25;0.93;;;18.40;1.00;;;;;;5054216;28;20488;-36
2023/01/09 00:47:45;;;;;;;5.78;1.33;;;18.40;1.00;;;;;;5054468;28;20560;-37
2023/01/09 00:50:21;;;;;;;2.03;0.70;;;18.30;1.00;;;;;;5054331;28;20122;-38
2023/01/09 00:52:50;;;;;;;3.00;0.90;;;18.40;1.00;;;;;;5054040;28;20052;-37
2023/01/09 00:55:17;;;;;;;3.10;0.70;;;18.30;1.00;;;;;;5054218;28;20580;-37
2023/01/09 00:57:44;;;;;;;4.88;0.73;;;18.30;1.00;;;;;;5053951;28;20076;-36
2023/01/09 01:00:11;;;;;;;2.38;0.70;;;18.30;1.00;;;;;;5054192;28;20044;-39
2023/01/09 01:02:38;;;;;;;3.00;0.57;;;18.30;1.00;;;;;;5053823;28;20037;-39
2023/01/09 01:07:51;;;;;;;4.47;1.02;;;18.20;1.00;;;;;;5054050;28;20110;-39
2023/01/09 01:10:21;;;;;;;2.00;0.70;;;18.20;1.00;;;;;;5053665;28;20049;-37
2023/01/09 01:12:48;;;;;;;2.45;0.60;;;18.20;1.00;;;;;;5053654;28;20064;-38
2023/01/09 01:15:16;;;;;;;4.50;1.00;;;18.10;1.00;;;;;;5053890;28;20041;-39
2023/01/09 01:17:43;;;;;;;5.72;1.10;;;18.10;1.00;;;;;;5052646;28;20036;-38
2023/01/09 01:20:17;;;;;;;5.50;0.82;;;18.10;1.00;;;;;;5053713;28;20037;-39
2023/01/09 01:22:45;;;;;;;3.90;0.93;;;18.10;1.00;;;;;;5053304;28;20485;-39
2023/01/09 01:25:13;;;;;;;2.25;0.55;;;18.00;1.00;;;;;;5053619;28;20067;-39
2023/01/09 01:27:40;;;;;;;3.10;0.77;;;18.00;1.00;;;;;;5053698;28;20045;-39
2023/01/09 01:30:10;;;;;;;4.57;1.05;;;18.00;1.00;;;;;;5053625;28;20045;-39
2023/01/09 01:32:37;;;;;;;1.58;0.65;;;18.00;1.00;;;;;;5053359;28;20659;-39
2023/01/09 01:35:05;;;;;;;5.35;0.88;;;18.00;1.00;;;;;;5053440;28;20098;-37
2023/01/09 01:37:33;;;;;;;4.18;0.70;;;17.90;1.00;;;;;;5053443;28;20056;-40
2023/01/09 01:40:00;;;;;;;5.40;0.80;;;17.90;1.00;;;;;;5053387;28;20496;-39
2023/01/09 01:42:27;;;;;;;4.72;1.20;;;17.90;1.00;;;;;;5053239;28;20044;-39
2023/01/09 01:45:16;;;;;;;3.60;0.98;;;17.90;1.00;;;;;;5053071;28;20045;-38
2023/01/09 01:47:49;;;;;;;3.33;0.90;;;17.80;1.00;;;;;;5053231;28;20037;-39
2023/01/09 01:50:44;;;;;;;4.25;0.50;;;17.80;1.00;;;;;;5053629;28;20447;-36
2023/01/09 01:53:19;;;;;;;4.13;0.85;;;17.80;1.00;;;;;;5052886;28;20040;-39
2023/01/09 01:56:04;;;;;;;3.20;0.70;;;17.70;1.00;;;;;;5053065;28;20128;-37
2023/01/09 01:58:35;;;;;;;4.85;1.20;;;17.70;1.00;;;;;;5052994;28;20041;-39
2023/01/09 02:01:01;;;;;;;5.65;0.82;;;17.70;1.00;;;;;;5053017;28;20041;-39
2023/01/09 02:03:29;;;;;;;5.65;0.77;;;17.70;1.00;;;;;;5052571;28;20041;-38
2023/01/09 02:05:55;;;;;;;5.72;0.73;;;17.60;1.00;;;;;;5052959;28;20461;-38
2023/01/09 02:08:22;;;;;;;2.95;1.15;;;17.60;1.00;;;;;;5052819;28;20079;-38
2023/01/09 02:10:50;;;;;;;5.00;1.00;;;17.60;1.00;;;;;;5052767;28;20045;-38
2023/01/09 02:13:17;;;;;;;4.00;0.70;;;17.60;1.00;;;;;;5052447;28;20052;-38
2023/01/09 02:16:14;;;;;;;8.45;2.13;;;17.60;1.00;;;;;;5052583;28;20139;-38
2023/01/09 02:18:59;;;;;;;4.55;1.13;;;17.60;1.00;;;;;;5052676;28;20064;-39
2023/01/09 02:21:42;;;;;;;6.72;1.33;;;17.50;1.00;;;;;;5052545;28;20066;-38
2023/01/09 02:24:20;;;;;;;3.28;0.90;;;17.50;1.00;;;;;;5052138;28;20555;-39
2023/01/09 02:26:53;;;;;;;6.38;1.13;;;17.50;1.00;;;;;;5052434;28;20075;-39
2023/01/09 02:29:50;;;;;;;4.95;0.63;;;17.50;1.00;;;;;;5052169;28;20068;-40
2023/01/09 02:32:51;;;;;;;2.67;0.75;;;17.40;1.00;;;;;;5052330;28;20389;-39
2023/01/09 02:35:37;;;;;;;3.60;1.02;;;17.40;1.00;;;;;;5052359;28;20063;-39
2023/01/09 02:38:22;;;;;;;4.32;1.13;;;17.40;1.00;;;;;;5052409;28;20045;-38
2023/01/09 02:40:57;;;;;;;2.60;0.60;;;17.40;1.00;;;;;;5052362;28;20041;-38
2023/01/09 02:43:25;;;;;;;4.25;0.90;;;17.30;1.00;;;;;;5051939;28;20071;-39
2023/01/09 02:45:51;;;;;;;6.03;1.08;;;17.30;1.00;;;;;;5052113;28;20075;-39
2023/01/09 02:48:18;;;;;;;4.45;1.00;;;17.30;1.00;;;;;;5052234;28;20459;-38
2023/01/09 02:51:12;;;;;;;3.78;1.42;;;17.30;1.00;;;;;;5052024;28;20132;-39
2023/01/09 02:53:46;;;;;;;;;;;17.30;1.00;;;;;;5052204;28;20063;-39
2023/01/09 02:56:32;;;;;;;3.97;1.02;;;17.30;1.00;;;;;;5052017;28;19927;-38
2023/01/09 02:59:15;;;;;;;2.25;0.60;;;17.20;1.00;;;;;;5051864;28;20488;-39
2023/01/09 03:01:50;;;;;;;3.27;0.77;;;17.20;1.00;;;;;;5052010;28;20452;-39
2023/01/09 03:04:32;;;;;;;3.47;0.90;;;17.20;1.00;;;;;;5051693;28;20124;-38
2023/01/09 03:07:09;;;;;;;3.13;1.50;;;17.20;1.00;;;;;;5051849;28;20045;-38
2023/01/09 03:09:40;;;;;;;3.03;0.52;;;17.20;1.00;;;;;;5051914;28;20041;-38
2023/01/09 03:12:13;;;;;;;5.25;1.38;;;17.20;1.00;;;;;;5051899;28;20037;-38
2023/01/09 03:14:46;;;;;;;3.67;1.10;;;17.20;1.00;;;;;;5051727;28;20132;-39
2023/01/09 03:17:21;;;;;;;2.67;0.70;;;17.20;1.00;;;;;;5051639;28;20384;-38
2023/01/09 03:19:51;;;;;;;3.08;0.80;;;17.10;1.00;;;;;;5051832;28;20049;-38
2023/01/09 03:22:17;;;;;;;4.38;1.08;;;17.10;1.00;;;;;;5051519;28;20127;-39
2023/01/09 03:24:44;;;;;;;2.63;0.65;;;17.10;1.00;;;;;;5051546;28;20120;-39
2023/01/09 03:27:11;;;;;;;5.25;1.25;;;17.10;1.00;;;;;;5051481;28;20041;-38
2023/01/09 03:29:38;;;;;;;3.90;0.90;;;17.00;1.00;;;;;;5051583;28;20053;-38
2023/01/09 03:32:05;;;;;;;2.67;1.10;;;17.00;1.00;;;;;;5051423;28;20048;-38
2023/01/09 03:34:32;;;;;;;5.03;1.05;;;17.00;1.00;;;;;;5050655;28;20049;-38
2023/01/09 03:36:58;;;;;;;2.85;0.70;;;17.00;1.00;;;;;;5051415;28;20044;-38
2023/01/09 03:39:25;;;;;;;5.35;2.05;;;17.00;1.00;;;;;;5051533;28;20615;-38
2023/01/09 03:41:52;;;;;;;2.88;1.10;;;17.00;1.00;;;;;;5054381;28;20488;-38
2023/01/09 03:44:19;;;;;;;3.40;1.05;;;17.00;1.00;;;;;;5054920;28;20029;-38
2023/01/09 03:46:46;;;;;;;4.05;1.10;;;17.00;1.00;;;;;;5055322;28;20037;-39
2023/01/09 03:49:12;;;;;;;7.88;1.67;;;16.90;1.00;;;;;;5055480;28;20091;-38
2023/01/09 03:51:39;;;;;;;4.97;1.30;;;17.00;1.00;;;;;;5055201;28;20045;-38
2023/01/09 03:54:06;;;;;;;5.40;2.22;;;16.90;1.00;;;;;;5055075;28;20072;-38
2023/01/09 03:56:33;;;;;;;6.68;1.00;;;16.90;1.00;;;;;;5055335;28;20095;-38
2023/01/09 03:59:00;;;;;;;4.68;1.35;;;16.90;1.00;;;;;;5055216;28;20045;-38
2023/01/09 04:01:26;;;;;;;2.78;1.05;;;16.90;1.00;;;;;;5055229;28;20037;-38
2023/01/09 04:03:53;;;;;;;3.58;1.40;;;16.90;1.00;;;;;;5054938;28;20052;-38
2023/01/09 04:06:20;;;;;;;6.78;0.75;;;16.80;1.00;;;;;;5055125;28;20037;-38
2023/01/09 04:08:47;;;;;;;5.30;1.00;;;16.90;1.00;;;;;;5055220;28;20553;-38
2023/01/09 04:11:16;;;;;;;5.30;1.10;;;16.80;1.00;;;;;;5055015;28;20044;-38
2023/01/09 04:13:43;;;;;;;5.57;1.33;;;16.80;1.00;;;;;;5054771;28;20079;-38
2023/01/09 04:16:10;;;;;;;3.03;0.63;;;16.80;1.00;;;;;;5054952;28;20053;-40
2023/01/09 04:18:37;;;;;;;6.05;1.40;;;16.80;1.00;;;;;;5055046;28;20041;-38
2023/01/09 04:21:04;;;;;;;6.20;1.20;;;16.80;1.00;;;;;;5037021;28;20045;-38
2023/01/09 04:23:31;;;;;;;9.32;1.33;;;16.80;1.00;;;;;;5054605;28;20037;-38
2023/01/09 04:25:58;;;;;;;5.20;1.15;;;16.80;1.00;;;;;;5053527;28;20099;-38
2023/01/09 04:28:24;;;;;;;4.32;1.25;;;16.80;1.00;;;;;;5054873;28;20059;-38
2023/01/09 04:30:51;;;;;;;2.80;0.77;;;16.70;1.00;;;;;;5054658;28;20068;-38
2023/01/09 04:33:18;;;;;;;4.82;1.45;;;16.70;1.00;;;;;;5054262;28;20052;-38
2023/01/09 04:35:45;;;;;;;6.20;1.17;;;16.70;1.00;;;;;;5054656;28;20128;-38
2023/01/09 04:38:11;;;;;;;3.30;0.82;;;16.70;1.00;;;;;;5054373;28;20060;-39
2023/01/09 04:40:38;;;;;;;3.40;1.23;;;16.70;1.00;;;;;;5054493;28;20049;-39
2023/01/09 04:43:05;;;;;;;4.90;1.13;;;16.70;1.00;;;;;;5054149;28;20037;-38
2023/01/09 04:45:32;;;;;;;4.00;0.93;;;16.70;1.00;;;;;;5036467;28;20068;-38
2023/01/09 04:47:58;;;;;;;2.30;0.90;;;16.60;1.00;;;;;;5054470;28;20115;-38
2023/01/09 04:50:25;;;;;;;4.35;1.33;;;16.60;1.00;;;;;;5053997;28;20041;-38
2023/01/09 04:52:52;;;;;;;3.42;0.95;;;16.60;1.00;;;;;;5054003;28;20072;-38
2023/01/09 04:55:19;;;;;;;3.17;1.45;;;16.60;1.00;;;;;;5054186;28;20051;-37
2023/01/09 04:57:45;;;;;;;4.10;1.02;;;16.60;1.00;;;;;;5054181;28;20033;-38
2023/01/09 05:00:13;;;;;;;2.03;0.73;;;16.60;1.00;;;;;;5054215;28;20437;-38
2023/01/09 05:02:39;;;;;;;4.70;1.25;;;16.60;1.00;;;;;;5053956;28;20404;-38
2023/01/09 05:05:08;;;;;;;3.60;1.02;;;16.50;1.00;;;;;;5054075;28;20378;-38
2023/01/09 05:07:38;;;;;;;2.78;0.90;;;16.60;1.00;;;;;;5053356;28;20399;-38
2023/01/09 05:10:06;;;;;;;4.50;1.58;;;16.50;1.00;;;;;;5052494;28;20045;-38
2023/01/09 05:12:36;;;;;;;5.03;0.93;;;16.50;1.00;;;;;;5053024;28;20048;-38
2023/01/09 05:15:03;;;;;;;5.80;1.40;;;16.50;1.00;;;;;;5053934;28;20045;-38
2023/01/09 05:17:30;;;;;;;5.63;0.90;;;16.50;1.00;;;;;;5053874;28;20443;-38
2023/01/09 05:19:57;;;;;;;6.47;0.88;;;16.50;1.00;;;;;;5053728;28;20679;-39
2023/01/09 05:22:23;;;;;;;6.43;1.23;;;16.40;1.00;;;;;;5053232;28;20568;-38
2023/01/09 05:24:50;;;;;;;4.93;1.33;;;16.40;1.00;;;;;;5053545;28;20546;-38
2023/01/09 05:27:17;;;;;;;6.78;1.67;;;16.40;1.00;;;;;;5053675;28;20045;-38
2023/01/09 05:29:44;;;;;;;5.60;1.10;;;16.40;1.00;;;;;;5053719;28;20045;-38
2023/01/09 05:32:11;;;;;;;6.22;1.45;;;16.40;1.00;;;;;;5053548;28;20041;-38
2023/01/09 05:34:37;;;;;;;6.65;0.98;;;16.40;1.00;;;;;;5053048;28;20073;-38
2023/01/09 05:37:04;;;;;;;3.90;1.45;;;16.40;1.00;;;;;;5053539;28;20040;-38
2023/01/09 05:39:31;;;;;;;2.45;0.85;;;16.30;1.00;;;;;;5053361;28;20068;-38
2023/01/09 05:41:57;;;;;;;7.45;1.67;;;16.30;1.00;;;;;;5053453;28;20088;-38
2023/01/09 05:44:24;;;;;;;2.88;1.48;;;16.30;1.00;;;;;;5052902;28;20041;-38
2023/01/09 05:46:51;;;;;;;5.57;1.10;;;16.30;1.00;;;;;;5053290;28;20041;-38
2023/01/09 05:49:17;;;;;;;3.17;0.77;;;16.30;1.00;;;;;;5053181;28;20049;-38
2023/01/09 05:51:44;;;;;;;3.13;0.75;;;16.30;1.00;;;;;;5053141;28;20049;-38
2023/01/09 05:54:11;;;;;;;5.38;1.20;;;16.30;1.00;;;;;;5052780;28;20504;-38
2023/01/09 05:56:38;;;;;;;3.70;0.98;;;16.30;1.00;;;;;;5053196;28;20045;-38
2023/01/09 05:59:04;;;;;;;3.47;0.95;;;16.30;1.00;;;;;;5052982;28;20554;-39
2023/01/09 06:01:31;;;;;;;11.75;1.50;;;16.30;1.00;;;;;;5053003;28;20041;-38
2023/01/09 06:03:58;;;;;;;2.40;1.42;;;16.30;1.00;;;;;;5051847;28;20049;-38
2023/01/09 06:06:25;;;;;;;5.00;1.42;;;16.30;1.00;;;;;;5052962;28;20091;-39
2023/01/09 06:08:52;;;;;;;6.18;1.30;;;16.30;1.00;;;;;;5052894;28;20037;-38
2023/01/09 06:11:18;;;;;;;3.50;1.55;;;16.30;1.00;;;;;;5053063;28;20045;-39
2023/01/09 06:13:45;;;;;;;4.68;1.33;;;16.20;1.00;;;;;;5052444;28;20055;-38
2023/01/09 06:16:12;;;;;;;1.42;0.77;;;16.30;1.00;;;;;;5051427;28;20165;-38
2023/01/09 06:18:39;;;;;;;5.68;1.65;;;16.20;1.00;;;;;;5051298;28;20037;-38
2023/01/09 06:21:06;;;;;;;6.50;0.95;;;16.20;1.00;;;;;;5052569;28;20080;-38
2023/01/09 06:23:33;;;;;;;3.13;0.85;;;16.20;1.00;;;;;;5052167;28;20166;-38
2023/01/09 06:26:00;;;;;;;2.08;0.90;;;16.20;1.00;;;;;;5052531;28;20520;-38
2023/01/09 06:28:26;;;;;;;3.67;1.55;;;16.20;1.00;;;;;;5052437;28;20120;-39
2023/01/09 06:30:53;;;;;;;3.25;1.05;;;16.20;1.00;;;;;;5052354;28;20106;-38
2023/01/09 06:33:20;;;;;;;3.85;0.85;;;16.20;1.00;;;;;;5051987;28;20135;-39
2023/01/09 06:35:47;;;;;;;2.38;0.98;;;16.20;1.00;;;;;;5063376;22;20662;-37
2023/01/09 06:38:14;;;;;;;3.72;0.90;;;16.20;1.00;;;;;;5026257;28;20450;-36
2023/01/09 06:40:40;;;;;;;2.92;0.90;;;16.20;1.00;;;;;;5052366;28;20408;-37
2023/01/09 06:43:07;;;;;;;1.65;0.90;;;16.10;1.00;;;;;;5051965;28;20044;-38
2023/01/09 06:45:34;;;;;;;1.95;0.93;;;16.10;1.00;;;;;;5052092;28;20051;-38
2023/01/09 06:48:01;;;;;;;3.17;0.98;;;16.10;1.00;;;;;;5052190;28;20037;-37
2023/01/09 06:50:27;;;;;;;3.90;1.02;;;16.10;1.00;;;;;;5052258;28;20094;-38
2023/01/09 06:52:54;;;;;;;1.80;0.85;;;16.10;1.00;;;;;;5051789;28;20053;-38
2023/01/09 06:55:21;;;;;;;1.70;0.80;;;16.10;1.00;;;;;;5034271;28;20507;-38
2023/01/09 06:57:48;;;;;;;4.43;1.50;;;16.10;1.00;;;;;;5052089;28;20162;-38
2023/01/09 07:00:15;;;;;;;1.92;0.85;;;16.10;1.00;;;;;;5051774;28;20099;-37
2023/01/09 07:02:42;;;;;;;5.63;0.95;;;16.10;1.00;;;;;;5051793;28;20427;-36
2023/01/09 07:05:10;;;;;;;2.05;0.98;;;16.10;1.00;;;;;;5051846;28;20045;-37
2023/01/09 07:07:38;;;;;;;4.68;1.52;;;16.00;1.00;;;;;;5051959;28;20045;-37
2023/01/09 07:10:07;;;;;;;2.05;1.00;;;16.00;1.00;;;;;;5051694;28;20048;-37
2023/01/09 07:12:34;;;;;;;3.20;1.35;;;16.00;1.00;;;;;;5051858;28;20041;-37
2023/01/09 07:15:01;;;;;;;3.15;1.02;;;16.00;1.00;;;;;;5051604;28;20037;-37
2023/01/09 07:17:27;;;;;;;1.80;0.75;;;16.00;1.00;;;;;;5051657;28;20040;-37
2023/01/09 07:19:54;;;;;;;6.20;1.67;;;16.00;1.00;;;;;;5051675;28;20077;-38
2023/01/09 07:22:21;;;;;;;2.92;1.42;;;16.00;1.00;;;;;;5051554;28;20040;-37
2023/01/09 07:24:48;;;;;;;5.30;1.60;;;16.00;1.00;;;;;;5051476;28;20048;-37
2023/01/09 07:27:14;;;;;;;2.50;1.30;;;15.90;1.00;;;;;;5051672;28;20045;-37
2023/01/09 07:29:41;;;;;;;2.63;1.00;;;15.90;1.00;;;;;;5051857;28;20053;-37
2023/01/09 07:32:08;;;;;;;2.67;1.13;;;15.90;1.00;;;;;;5051573;28;20053;-37
2023/01/09 07:34:35;;;;;;;5.43;1.50;;;15.90;1.00;;;;;;5051250;28;20124;-38
2023/01/09 07:37:01;;;;;;;1.95;1.00;;;15.90;1.00;;;;;;5051542;28;20110;-38
2023/01/09 07:39:28;;;;;;;1.98;0.88;;;15.90;1.00;;;;;;5051553;28;20041;-38
2023/01/09 07:41:55;;;;;;;3.42;1.10;;;15.90;1.00;;;;;;5051567;28;20107;-38
2023/01/09 07:44:22;;;;;;;3.13;0.80;;;15.80;1.00;;;;;;5051335;28;20166;-37
2023/01/09 07:46:48;;;;;;;3.90;0.90;;;15.80;1.00;;;;;;5051442;28;20646;-38
2023/01/09 07:49:15;;;;;;;3.95;1.00;;;15.90;1.00;;;;;;5033410;28;20515;-37
2023/01/09 07:51:43;;;;;;;1.95;1.08;;;15.80;1.00;;;;;;5051254;28;20041;-37
2023/01/09 07:54:11;;;;;;;2.92;1.10;;;15.80;1.00;;;;;;5050027;28;20519;-37
2023/01/09 07:56:39;;;;;;;2.72;0.80;;;15.80;1.00;;;;;;5046890;28;20112;-36
2023/01/09 07:59:06;;;;;;;3.88;1.48;;;15.80;1.00;;;;;;5030256;28;20061;-36
2023/01/09 08:01:33;;;;;;;2.25;1.00;;;15.80;1.00;;;;;;5044803;28;20409;-37
2023/01/09 08:04:00;;;;;;;2.83;1.17;;;15.80;1.00;;;;;;5050896;28;20041;-38
2023/01/09 08:06:27;;;;;;;4.07;1.45;;;15.80;1.00;;;;;;5051037;28;20049;-37
2023/01/09 08:08:53;;;;;;;4.25;0.95;;;15.80;1.00;;;;;;5051195;28;20075;-37
2023/01/09 08:11:20;;;;;;;3.30;1.42;;;15.80;1.00;;;;;;5051161;28;20364;-37
2023/01/09 08:13:47;;;;;;;2.58;1.00;;;15.80;1.00;;;;;;5050946;28;20037;-36
2023/01/09 08:16:14;;;;;;;3.22;1.33;;;15.70;1.00;;;;;;5051115;28;20523;-37
2023/01/09 08:18:41;;;;;;;2.17;1.20;;;15.70;1.00;;;;;;5050894;28;20469;-37
2023/01/09 08:21:10;;;;;;;1.95;0.80;;;15.70;1.00;;;;;;5051255;28;20041;-38
2023/01/09 08:23:37;;;;;;;2.80;0.90;;;15.70;1.00;;;;;;5050884;28;20114;-38
2023/01/09 08:26:04;;;;;;;1.83;1.00;;;15.70;1.00;;;;;;5052315;28;20415;-37
2023/01/09 08:28:31;;;;;;;1.65;1.08;;;15.70;1.00;;;;;;5054847;28;20047;-38
2023/01/09 08:30:58;;;;;;;2.55;0.77;;;15.70;1.00;;;;;;5054670;28;20099;-39
2023/01/09 08:33:25;;;;;;;1.92;0.73;;;15.70;1.00;;;;;;5054241;28;20123;-37
2023/01/09 08:35:52;;;;;;;2.60;1.30;;;15.70;1.00;;;;;;5054400;28;20044;-37
2023/01/09 08:38:21;;;;;;;1.73;0.82;;;15.70;1.00;;;;;;5054576;28;20052;-37
2023/01/09 08:40:47;;;;;;;1.83;1.00;;;15.70;1.00;;;;;;5054429;28;20044;-36
2023/01/09 08:48:49;;;;;;;2.15;1.15;;;15.60;1.00;;;;;;5054421;28;20592;-37
2023/01/09 08:51:15;;;;;;;1.77;1.00;;;15.70;1.00;;;;;;5054295;28;20040;-37
2023/01/09 08:53:42;;;;;;;4.90;1.35;;;15.60;1.00;;;;;;5036332;28;20128;-37
2023/01/09 08:56:09;;;;;;;3.55;0.88;;;15.60;1.00;;;;;;5054121;28;20045;-38
2023/01/09 08:58:36;;;;;;;3.35;0.98;;;15.60;1.00;;;;;;5054229;28;20132;-38
2023/01/09 09:01:07;;;;;;;1.30;0.80;;;15.60;1.00;;;;;;5054048;28;20052;-37
2023/01/09 09:03:33;;;;;;;1.95;0.90;;;15.60;1.00;;;;;;5053796;28;20412;-37
2023/01/09 09:06:01;;;;;;;3.10;0.80;;;15.60;1.00;;;;;;5054038;28;20033;-37
2023/01/09 09:08:28;;;;;;;1.67;0.90;;;15.60;1.00;;;;;;5053889;28;20103;-37
2023/01/09 09:10:56;;;;;;;3.90;0.98;;;15.60;1.00;;;;;;5053889;28;20049;-36
2023/01/09 09:13:22;;;;;;;1.98;1.17;;;15.60;1.00;;;;;;5053652;28;20041;-37
2023/01/09 09:15:49;;;;;;;3.70;1.33;;;15.60;1.00;;;;;;5053607;28;20076;-37
2023/01/09 09:18:16;;;;;;;2.65;0.90;;;15.60;1.00;;;;;;5053856;28;20041;-37
2023/01/09 09:20:43;;;;;;;1.92;1.10;;;15.60;1.00;;;;;;5035826;28;20453;-37
2023/01/09 09:23:10;;;;;;;2.47;1.02;;;15.50;1.00;;;;;;5035651;28;20118;-37
2023/01/09 09:25:37;;;;;;;1.60;1.15;;;15.50;1.00;;;;;;5053430;28;20037;-37
2023/01/09 09:28:05;;;;;;;3.17;1.52;;;15.50;1.00;;;;;;5053795;28;20474;-37
2023/01/09 09:30:32;;;;;;;2.60;1.35;;;15.50;1.00;;;;;;5053621;28;20416;-37
2023/01/09 09:33:02;;;;;;;2.17;0.93;;;15.50;1.00;;;;;;5053275;28;20052;-37
2023/01/09 09:35:31;;;;;;;2.10;1.27;;;15.50;1.00;;;;;;5053262;28;20409;-38
2023/01/09 09:38:01;;;;;;;3.50;1.02;;;15.50;1.00;;;;;;5034516;28;20136;-38
2023/01/09 09:40:30;;;;;;;2.10;1.27;;;15.50;1.00;;;;;;5053330;28;20052;-37
2023/01/09 09:46:13;;;;;;;2.38;1.30;;;15.50;1.00;;;;;;5053158;28;20053;-37
2023/01/09 09:48:58;;;;;;;2.40;1.13;;;15.50;1.00;;;;;;5035352;28;20083;-37
2023/01/09 09:51:30;;;;;;;2.50;1.20;;;15.50;1.00;;;;;;5053104;28;20538;-37
2023/01/09 09:54:14;;;;;;;1.85;1.35;;;15.50;1.00;;;;;;5052899;28;20041;-37
2023/01/09 09:56:50;;;;;;;2.05;1.08;;;15.40;1.00;;;;;;5052910;28;20041;-37
2023/01/09 09:59:21;;;;;;;2.25;1.13;;;15.40;1.00;;;;;;5053026;28;20064;-38
2023/01/09 10:02:13;;;;;;;2.35;1.23;;;15.40;1.00;;;;;;5052916;28;20041;-37
2023/01/09 10:04:47;;;;;;;5.13;1.20;;;15.40;1.00;;;;;;5052727;28;20033;-38
2023/01/09 10:07:22;;;;;;;3.05;1.30;;;15.40;1.00;;;;;;5052864;28;20116;-38
2023/01/09 10:09:53;;;;;;;3.08;1.08;;;15.40;1.00;;;;;;5053002;28;20069;-37
2023/01/09 10:12:28;;;;;;;4.65;2.28;;;15.40;1.00;;;;;;5052589;28;20048;-38
2023/01/09 10:14:58;;;;;;;2.20;0.88;;;15.40;1.00;;;;;;5052594;28;20478;-36
2023/01/09 10:17:27;;;;;;;1.98;1.00;;;15.40;1.00;;;;;;5052633;28;20044;-37
2023/01/09 10:20:32;;;;;;;1.40;0.77;;;15.40;1.00;;;;;;5052570;28;20056;-37
2023/01/09 10:23:20;;;;;;;1.50;0.70;;;15.40;1.00;;;;;;5052319;28;20449;-37
2023/01/09 10:25:59;;;;;;;2.20;0.70;;;15.40;1.00;;;;;;5052306;28;20511;-38
2023/01/09 10:28:32;;;;;;;1.40;0.75;;;15.40;1.00;;;;;;5052425;28;20037;-38
2023/01/09 10:31:30;;;;;;;1.20;0.60;;;15.40;1.00;;;;;;5052454;28;20151;-38
2023/01/09 10:34:13;;;;;;;2.78;0.95;;;15.40;1.00;;;;;;5052124;28;20057;-37
2023/01/09 10:36:45;;;;;;;2.15;1.02;;;15.40;1.00;;;;;;5052173;28;20076;-37
2023/01/09 10:39:27;;;;;;;1.45;0.80;;;15.30;1.00;;;;;;5052177;28;20045;-37
2023/01/09 10:42:10;;;;;;;1.75;0.85;;;15.40;1.00;;;;;;5052151;28;20408;-38
2023/01/09 10:44:48;;;;;;;1.60;0.50;;;15.40;1.00;;;;;;5051886;28;20037;-37
2023/01/09 10:47:19;;;;;;;2.45;1.10;;;15.30;1.00;;;;;;5052126;28;20053;-37
2023/01/09 10:49:48;;;;;;;3.05;1.05;;;15.30;1.00;;;;;;5051932;28;20515;-38
2023/01/09 10:52:19;;;;;;;2.92;0.73;;;15.30;1.00;;;;;;5051960;28;20049;-37
2023/01/09 10:54:54;;;;;;;1.23;0.68;;;15.40;1.00;;;;;;5051857;28;20056;-38
2023/01/09 10:57:39;;;;;;;2.78;1.23;;;15.40;1.00;;;;;;5051933;28;20492;-37
2023/01/09 11:00:12;;;;;;;2.53;0.55;;;15.40;1.00;;;;;;5051957;28;20049;-36
2023/01/09 11:02:39;;;;;;;2.35;1.10;;;15.40;1.00;;;;;;5051632;28;20041;-37
2023/01/09 11:05:09;;;;;;;3.58;0.90;;;15.40;1.00;;;;;;5051901;28;20037;-38
2023/01/09 11:07:40;;;;;;;2.63;0.68;;;15.40;1.00;;;;;;5051770;28;20063;-38
2023/01/09 11:10:13;;;;;;;1.83;0.70;;;15.40;1.00;;;;;;5051838;28;20037;-39
2023/01/09 11:12:40;;;;;;;4.97;0.75;;;15.40;1.00;;;;;;5051843;28;20459;-38
2023/01/09 11:15:19;;;;;;;3.55;0.90;;;15.40;1.00;;;;;;5051774;28;20076;-38
2023/01/09 11:17:46;;;;;;;2.50;0.70;;;15.40;1.00;;;;;;5051786;28;20442;-38
2023/01/09 11:20:22;;;;;;;2.92;0.85;;;15.40;1.00;;;;;;5051649;28;20045;-37
2023/01/09 11:22:59;;;;;;;2.17;0.80;;;15.40;1.00;;;;;;5051404;28;20041;-37
2023/01/09 11:25:27;;;;;;;1.90;0.65;;;15.40;1.00;;;;;;5051965;28;20044;-39
2023/01/09 11:28:01;;;;;;;5.47;1.02;;;15.40;1.00;;;;;;5051582;28;20061;-38
2023/01/09 11:30:28;;;;;;;;;;;15.40;1.00;;;;;;5034075;28;20420;-37
2023/01/09 11:32:56;;;;;;;2.50;1.00;;;15.40;1.00;;;;;;5051408;28;19995;-37
2023/01/09 11:35:27;;;;;;;3.92;0.80;;;15.40;1.00;;;;;;5051627;28;20056;-38
2023/01/09 11:38:10;;;;;;;1.83;1.10;;;15.40;1.00;;;;;;5051625;28;20124;-38
2023/01/09 11:40:48;;;;;;;1.77;0.63;;;15.40;1.00;;;;;;5051373;28;20059;-36
2023/01/09 11:43:31;;;;;;;4.70;0.90;;;15.40;1.00;;;;;;5051230;28;20493;-38
2023/01/09 11:45:59;;;;;;;;;;;15.40;1.00;;;;;;5051833;28;20033;-36
2023/01/09 11:48:30;;;;;;;2.50;0.73;;;15.40;1.00;;;;;;5051508;28;19955;-37
2023/01/09 11:50:58;;;;;;;1.83;0.80;;;15.40;1.00;;;;;;5051556;28;20068;-37
2023/01/09 11:53:26;;;;;;;2.42;0.80;;;15.40;1.00;;;;;;5051070;28;20072;-38
2023/01/09 11:56:01;;;;;;;2.47;0.93;;;15.40;1.00;;;;;;5051416;28;20049;-37
2023/01/09 11:58:33;;;;;;;2.70;0.95;;;15.40;1.00;;;;;;5051244;28;20037;-37
2023/01/09 12:01:15;;;;;;;6.30;1.33;;;15.40;1.00;;;;;;5052705;28;20041;-37
2023/01/09 12:04:09;;;;;;;3.15;1.17;;;15.40;1.00;;;;;;5054920;28;20037;-37
2023/01/09 12:07:16;;;;;;;1.80;1.02;;;15.40;1.00;;;;;;5037406;28;20041;-37
2023/01/09 12:09:45;;;;;;;3.65;0.73;;;15.40;1.00;;;;;;5055144;28;20060;-37
2023/01/09 12:12:28;;;;;;;1.50;0.90;;;15.40;1.00;;;;;;5054833;28;20503;-38
2023/01/09 12:15:41;;;;;;;6.15;0.75;;;15.40;1.00;;;;;;5054869;28;20153;-38
2023/01/09 12:18:37;;;;;;;2.08;0.52;;;15.40;1.00;;;;;;5054932;28;20083;-37
2023/01/09 12:21:42;;;;;;;2.97;1.02;;;15.40;1.00;;;;;;5054818;28;20136;-37
2023/01/09 12:24:52;;;;;;;4.78;1.17;;;15.40;1.00;;;;;;5054639;28;20399;-36
2023/01/09 12:27:34;;;;;;;2.88;1.15;;;15.40;1.00;;;;;;5052201;28;20128;-36
2023/01/09 12:30:25;;;;;;;3.75;1.08;;;15.40;1.00;;;;;;5054734;28;20072;-38
2023/01/09 12:33:13;;;;;;;4.82;1.00;;;15.40;1.00;;;;;;5054032;28;20136;-37
2023/01/09 12:35:59;;;;;;;3.40;0.85;;;15.40;1.00;;;;;;5054466;28;20037;-37
2023/01/09 12:39:05;;;;;;;5.78;1.00;;;15.40;1.00;;;;;;5054669;28;20040;-36
2023/01/09 12:42:00;;;;;;;2.58;0.85;;;15.40;1.00;;;;;;5054344;28;20099;-36
2023/01/09 12:44:51;;;;;;;3.47;1.20;;;15.40;1.00;;;;;;5054525;28;20124;-37
2023/01/09 12:47:44;;;;;;;3.47;1.13;;;15.40;1.00;;;;;;5036400;28;20143;-38
2023/01/09 12:50:26;;;;;;;5.63;1.25;;;15.40;1.00;;;;;;5054466;28;20068;-37
2023/01/09 12:53:15;;;;;;;5.78;1.17;;;15.40;1.00;;;;;;5054027;28;20360;-37
2023/01/09 12:55:49;;;;;;;5.78;0.93;;;15.40;1.00;;;;;;5054170;28;20044;-37
2023/01/09 12:59:01;;;;;;;6.10;1.00;;;15.40;1.00;;;;;;5054136;28;20048;-36
2023/01/09 13:01:34;;;;;;;2.78;0.93;;;15.40;1.00;;;;;;5004720;28;20045;-36
2023/01/09 13:04:18;;;;;;;3.70;1.00;;;15.40;1.00;;;;;;5053749;28;20098;-38
2023/01/09 13:06:54;;;;;;;2.30;1.13;;;15.40;1.00;;;;;;5053999;28;20061;-37
2023/01/09 13:10:03;;;;;;;4.82;1.00;;;15.40;1.00;;;;;;5053909;28;20037;-38
2023/01/09 13:12:35;;;;;;;3.03;1.02;;;15.40;1.00;;;;;;4982489;28;20400;-36
2023/01/09 13:15:23;;;;;;;2.30;1.10;;;15.30;1.00;;;;;;5053845;28;20484;-37
2023/01/09 13:17:55;;;;;;;4.85;1.00;;;15.30;1.00;;;;;;5053895;28;20496;-37
2023/01/09 13:20:37;;;;;;;3.65;0.63;;;15.40;1.00;;;;;;5053776;28;20045;-37
2023/01/09 13:23:30;;;;;;;3.60;1.35;;;15.30;1.00;;;;;;5053457;28;20087;-38
2023/01/09 13:26:14;;;;;;;3.00;1.08;;;15.30;1.00;;;;;;5044778;28;20052;-36
2023/01/09 13:28:45;;;;;;;4.05;0.70;;;15.30;1.00;;;;;;5053696;28;20045;-37
2023/01/09 13:31:32;;;;;;;5.63;1.15;;;15.30;1.00;;;;;;5053601;28;20103;-37
2023/01/09 13:34:01;;;;;;;3.33;0.85;;;15.30;1.00;;;;;;5053491;28;20445;-36